sensor_id;sensor_type;location;lat;lon;timestamp;pressure;altitude;pressure_sealevel;temperature;humidity
14204;BME280;7185;51.854;6.622;2023-08-06T00:02:17;100170.50;;;20.07;81.42
14204;BME280;7185;51.854;6.622;2023-08-06T00:04:48;100166.97;;;20.06;80.95
14204;BME280;7185;51.854;6.622;2023-08-06T00:07:22;100165.44;;;20.17;80.92
14204;BME280;7185;51.854;6.622;2023-08-06T00:09:53;100172.31;;;20.06;81.29
14204;BME280;7185;51.854;6.622;2023-08-06T00:12:25;100167.03;;;19.92;81.80
14204;BME280;7185;51.854;6.622;2023-08-06T00:15:04;100162.06;;;20.00;81.47
14204;BME280;7185;51.854;6.622;2023-08-06T00:18:00;100170.94;;;19.86;82.36
14204;BME280;7185;51.854;6.622;2023-08-06T00:20:39;100161.34;;;19.69;82.28
14204;BME280;7185;51.854;6.622;2023-08-06T00:23:29;100159.16;;;19.90;82.21
14204;BME280;7185;51.854;6.622;2023-08-06T00:26:13;100156.03;;;19.84;81.93
14204;BME280;7185;51.854;6.622;2023-08-06T00:28:47;100160.66;;;19.80;81.67
14204;BME280;7185;51.854;6.622;2023-08-06T00:31:31;100161.38;;;19.84;82.17
14204;BME280;7185;51.854;6.622;2023-08-06T00:34:11;100158.31;;;19.90;82.14
14204;BME280;7185;51.854;6.622;2023-08-06T00:36:49;100145.66;;;19.94;81.75
14204;BME280;7185;51.854;6.622;2023-08-06T00:39:31;100148.25;;;19.66;82.18
14204;BME280;7185;51.854;6.622;2023-08-06T00:42:03;100149.56;;;19.73;82.46
14204;BME280;7185;51.854;6.622;2023-08-06T00:44:36;100148.63;;;19.60;83.16
14204;BME280;7185;51.854;6.622;2023-08-06T00:47:14;100144.06;;;19.77;82.82
14204;BME280;7185;51.854;6.622;2023-08-06T00:49:56;100142.91;;;19.66;83.35
14204;BME280;7185;51.854;6.622;2023-08-06T00:52:32;100139.50;;;19.64;83.27
14204;BME280;7185;51.854;6.622;2023-08-06T00:55:11;100149.56;;;19.73;83.00
14204;BME280;7185;51.854;6.622;2023-08-06T00:57:56;100135.09;;;19.78;82.18
14204;BME280;7185;51.854;6.622;2023-08-06T01:00:39;100145.75;;;19.63;82.92
14204;BME280;7185;51.854;6.622;2023-08-06T01:03:17;100145.56;;;19.81;82.39
14204;BME280;7185;51.854;6.622;2023-08-06T01:06:08;100153.47;;;19.53;83.34
14204;BME280;7185;51.854;6.622;2023-08-06T01:09:30;100140.06;;;19.84;82.57
14204;BME280;7185;51.854;6.622;2023-08-06T01:12:21;100149.03;;;19.54;83.55
14204;BME280;7185;51.854;6.622;2023-08-06T01:15:27;100141.03;;;19.68;83.31
14204;BME280;7185;51.854;6.622;2023-08-06T01:18:26;100131.50;;;19.79;83.40
14204;BME280;7185;51.854;6.622;2023-08-06T01:21:05;100129.34;;;19.71;83.81
14204;BME280;7185;51.854;6.622;2023-08-06T01:23:57;100129.44;;;19.84;83.11
14204;BME280;7185;51.854;6.622;2023-08-06T01:26:37;100127.09;;;19.92;82.67
14204;BME280;7185;51.854;6.622;2023-08-06T01:29:28;100123.03;;;20.01;82.73
14204;BME280;7185;51.854;6.622;2023-08-06T01:32:25;100122.97;;;19.73;83.42
14204;BME280;7185;51.854;6.622;2023-08-06T01:35:30;100122.25;;;19.99;82.68
14204;BME280;7185;51.854;6.622;2023-08-06T01:48:31;100115.47;;;20.08;82.69
14204;BME280;7185;51.854;6.622;2023-08-06T01:55:35;100107.13;;;19.99;83.07
14204;BME280;7185;51.854;6.622;2023-08-06T02:06:38;100102.09;;;19.95;82.66
14204;BME280;7185;51.854;6.622;2023-08-06T02:09:32;100089.06;;;20.04;82.79
14204;BME280;7185;51.854;6.622;2023-08-06T02:12:43;100095.94;;;20.34;81.71
14204;BME280;7185;51.854;6.622;2023-08-06T02:15:47;100095.72;;;20.25;82.02
14204;BME280;7185;51.854;6.622;2023-08-06T02:18:43;100095.88;;;20.09;83.10
14204;BME280;7185;51.854;6.622;2023-08-06T02:22:00;100093.41;;;20.05;82.91
14204;BME280;7185;51.854;6.622;2023-08-06T02:25:24;100095.59;;;19.86;83.03
14204;BME280;7185;51.854;6.622;2023-08-06T02:28:32;100097.84;;;19.78;83.32
14204;BME280;7185;51.854;6.622;2023-08-06T02:34:58;100091.38;;;19.96;83.01
14204;BME280;7185;51.854;6.622;2023-08-06T02:38:23;100093.88;;;19.85;82.95
14204;BME280;7185;51.854;6.622;2023-08-06T02:41:31;100088.56;;;19.85;82.66
14204;BME280;7185;51.854;6.622;2023-08-06T02:44:21;100087.19;;;19.92;82.75
14204;BME280;7185;51.854;6.622;2023-08-06T02:59:39;100067.53;;;19.95;83.36
14204;BME280;7185;51.854;6.622;2023-08-06T03:02:22;100071.59;;;20.00;83.61
14204;BME280;7185;51.854;6.622;2023-08-06T03:05:00;100071.81;;;19.97;83.47
14204;BME280;7185;51.854;6.622;2023-08-06T03:08:31;100064.56;;;19.99;83.46
14204;BME280;7185;51.854;6.622;2023-08-06T03:12:22;100062.31;;;19.93;83.50
14204;BME280;7185;51.854;6.622;2023-08-06T03:15:47;100055.22;;;20.06;83.52
14204;BME280;7185;51.854;6.622;2023-08-06T03:19:35;100055.13;;;19.81;82.94
14204;BME280;7185;51.854;6.622;2023-08-06T03:22:40;100050.72;;;19.94;83.34
14204;BME280;7185;51.854;6.622;2023-08-06T03:26:06;100050.72;;;19.94;83.39
14204;BME280;7185;51.854;6.622;2023-08-06T03:45:53;100039.91;;;19.83;83.57
14204;BME280;7185;51.854;6.622;2023-08-06T03:49:44;100043.78;;;19.92;83.12
14204;BME280;7185;51.854;6.622;2023-08-06T03:53:01;100047.31;;;19.78;83.51
14204;BME280;7185;51.854;6.622;2023-08-06T03:56:17;100035.00;;;19.77;83.58
14204;BME280;7185;51.854;6.622;2023-08-06T03:59:23;100043.34;;;19.70;83.94
14204;BME280;7185;51.854;6.622;2023-08-06T04:06:02;100034.41;;;19.86;83.40
14204;BME280;7185;51.854;6.622;2023-08-06T04:12:26;100036.22;;;19.85;83.47
14204;BME280;7185;51.854;6.622;2023-08-06T04:16:00;100037.44;;;19.80;83.44
14204;BME280;7185;51.854;6.622;2023-08-06T04:22:36;100032.53;;;19.73;83.58
14204;BME280;7185;51.854;6.622;2023-08-06T04:26:21;100034.03;;;19.78;83.54
14204;BME280;7185;51.854;6.622;2023-08-06T04:29:40;100039.16;;;19.81;83.38
14204;BME280;7185;51.854;6.622;2023-08-06T04:32:28;100034.59;;;19.83;83.49
14204;BME280;7185;51.854;6.622;2023-08-06T04:35:41;100037.06;;;19.86;83.81
14204;BME280;7185;51.854;6.622;2023-08-06T04:39:26;100037.44;;;19.80;83.70
14204;BME280;7185;51.854;6.622;2023-08-06T04:42:50;100045.63;;;19.77;83.02
14204;BME280;7185;51.854;6.622;2023-08-06T04:45:37;100046.00;;;19.85;83.27
14204;BME280;7185;51.854;6.622;2023-08-06T04:51:33;100057.97;;;20.05;82.90
14204;BME280;7185;51.854;6.622;2023-08-06T04:58:39;100050.31;;;20.00;83.36
14204;BME280;7185;51.854;6.622;2023-08-06T05:03:13;100049.75;;;19.95;83.85
14204;BME280;7185;51.854;6.622;2023-08-06T05:04:20;100051.78;;;19.92;83.69
14204;BME280;7185;51.854;6.622;2023-08-06T05:07:16;100047.69;;;19.86;84.33
14204;BME280;7185;51.854;6.622;2023-08-06T05:14:24;100052.84;;;20.02;83.89
14204;BME280;7185;51.854;6.622;2023-08-06T05:17:10;100051.41;;;20.11;83.10
14204;BME280;7185;51.854;6.622;2023-08-06T05:20:15;100054.06;;;20.11;83.63
14204;BME280;7185;51.854;6.622;2023-08-06T05:23:28;100057.16;;;20.17;83.65
14204;BME280;7185;51.854;6.622;2023-08-06T05:26:21;100061.41;;;20.20;83.50
14204;BME280;7185;51.854;6.622;2023-08-06T05:29:45;100063.69;;;20.26;83.43
14204;BME280;7185;51.854;6.622;2023-08-06T05:33:11;100069.13;;;20.37;83.16
14204;BME280;7185;51.854;6.622;2023-08-06T05:35:59;100070.63;;;20.42;83.29
14204;BME280;7185;51.854;6.622;2023-08-06T05:39:02;100068.91;;;20.41;83.16
14204;BME280;7185;51.854;6.622;2023-08-06T05:41:53;100075.31;;;20.51;83.10
14204;BME280;7185;51.854;6.622;2023-08-06T05:45:21;100072.75;;;20.62;82.92
14204;BME280;7185;51.854;6.622;2023-08-06T05:48:05;100083.22;;;20.65;82.69
14204;BME280;7185;51.854;6.622;2023-08-06T05:51:07;100087.25;;;20.58;82.90
14204;BME280;7185;51.854;6.622;2023-08-06T05:54:06;100084.31;;;20.76;82.32
14204;BME280;7185;51.854;6.622;2023-08-06T05:57:09;100086.84;;;20.90;82.55
14204;BME280;7185;51.854;6.622;2023-08-06T05:59:43;100093.47;;;20.97;81.98
14204;BME280;7185;51.854;6.622;2023-08-06T06:02:17;100083.16;;;20.93;82.38
14204;BME280;7185;51.854;6.622;2023-08-06T06:04:49;100088.78;;;21.14;81.79
14204;BME280;7185;51.854;6.622;2023-08-06T06:07:21;100095.38;;;21.21;80.98
14204;BME280;7185;51.854;6.622;2023-08-06T06:09:53;100091.50;;;21.38;81.71
14204;BME280;7185;51.854;6.622;2023-08-06T06:12:25;100092.94;;;21.55;80.90
14204;BME280;7185;51.854;6.622;2023-08-06T06:14:57;100099.97;;;21.56;80.44
14204;BME280;7185;51.854;6.622;2023-08-06T06:17:30;100095.72;;;21.54;79.56
14204;BME280;7185;51.854;6.622;2023-08-06T06:20:02;100110.25;;;21.49;79.51
14204;BME280;7185;51.854;6.622;2023-08-06T06:22:34;100099.56;;;21.62;79.08
14204;BME280;7185;51.854;6.622;2023-08-06T06:25:06;100100.25;;;21.40;79.17
14204;BME280;7185;51.854;6.622;2023-08-06T06:27:38;100098.28;;;21.55;78.67
14204;BME280;7185;51.854;6.622;2023-08-06T06:30:11;100100.88;;;21.44;78.42
14204;BME280;7185;51.854;6.622;2023-08-06T06:32:44;100097.22;;;21.58;77.86
14204;BME280;7185;51.854;6.622;2023-08-06T06:35:17;100104.25;;;21.72;77.56
14204;BME280;7185;51.854;6.622;2023-08-06T06:37:49;100106.16;;;21.70;78.18
14204;BME280;7185;51.854;6.622;2023-08-06T06:40:21;100106.41;;;21.67;78.31
14204;BME280;7185;51.854;6.622;2023-08-06T06:42:52;100105.50;;;21.79;77.97
14204;BME280;7185;51.854;6.622;2023-08-06T06:45:24;100112.13;;;21.73;78.56
14204;BME280;7185;51.854;6.622;2023-08-06T06:47:57;100116.97;;;21.92;77.95
14204;BME280;7185;51.854;6.622;2023-08-06T06:50:29;100118.69;;;21.93;77.52
14204;BME280;7185;51.854;6.622;2023-08-06T06:53:01;100114.81;;;21.97;77.43
14204;BME280;7185;51.854;6.622;2023-08-06T06:55:33;100119.06;;;21.76;77.30
14204;BME280;7185;51.854;6.622;2023-08-06T06:58:04;100113.00;;;21.98;77.62
14204;BME280;7185;51.854;6.622;2023-08-06T07:00:36;100122.19;;;22.18;76.95
14204;BME280;7185;51.854;6.622;2023-08-06T07:03:09;100119.28;;;22.21;75.03
14204;BME280;7185;51.854;6.622;2023-08-06T07:05:43;100115.69;;;22.34;75.93
14204;BME280;7185;51.854;6.622;2023-08-06T07:08:16;100122.09;;;22.55;75.72
14204;BME280;7185;51.854;6.622;2023-08-06T07:10:59;100120.44;;;22.66;75.21
14204;BME280;7185;51.854;6.622;2023-08-06T07:13:37;100125.66;;;22.67;75.01
14204;BME280;7185;51.854;6.622;2023-08-06T07:16:09;100120.81;;;22.84;74.66
14204;BME280;7185;51.854;6.622;2023-08-06T07:18:45;100124.84;;;22.89;74.74
14204;BME280;7185;51.854;6.622;2023-08-06T07:21:16;100126.31;;;23.05;73.88
14204;BME280;7185;51.854;6.622;2023-08-06T07:23:48;100127.16;;;23.05;72.82
14204;BME280;7185;51.854;6.622;2023-08-06T07:26:21;100125.38;;;23.17;72.61
14204;BME280;7185;51.854;6.622;2023-08-06T07:28:52;100136.53;;;23.11;72.01
14204;BME280;7185;51.854;6.622;2023-08-06T07:31:24;100137.25;;;23.02;71.54
14204;BME280;7185;51.854;6.622;2023-08-06T07:33:58;100135.94;;;22.96;72.32
14204;BME280;7185;51.854;6.622;2023-08-06T07:36:29;100134.09;;;22.97;72.49
14204;BME280;7185;51.854;6.622;2023-08-06T07:39:02;100143.06;;;22.84;70.52
14204;BME280;7185;51.854;6.622;2023-08-06T07:41:36;100136.03;;;22.95;71.53
14204;BME280;7185;51.854;6.622;2023-08-06T07:44:09;100141.16;;;22.98;72.53
14204;BME280;7185;51.854;6.622;2023-08-06T07:46:40;100141.63;;;23.03;71.56
14204;BME280;7185;51.854;6.622;2023-08-06T07:49:14;100135.69;;;23.11;71.65
14204;BME280;7185;51.854;6.622;2023-08-06T07:51:46;100136.34;;;23.26;71.46
14204;BME280;7185;51.854;6.622;2023-08-06T07:54:18;100142.28;;;23.29;71.01
14204;BME280;7185;51.854;6.622;2023-08-06T07:56:50;100141.31;;;23.30;70.95
14204;BME280;7185;51.854;6.622;2023-08-06T08:13:58;100141.97;;;22.98;71.23
14204;BME280;7185;51.854;6.622;2023-08-06T08:16:30;100146.72;;;22.95;71.43
14204;BME280;7185;51.854;6.622;2023-08-06T08:19:02;100148.91;;;22.89;71.63
14204;BME280;7185;51.854;6.622;2023-08-06T08:21:34;100154.94;;;22.80;71.90
14204;BME280;7185;51.854;6.622;2023-08-06T08:24:17;100150.94;;;22.74;73.20
14204;BME280;7185;51.854;6.622;2023-08-06T08:27:01;100153.97;;;22.70;73.34
14204;BME280;7185;51.854;6.622;2023-08-06T08:33:06;100155.25;;;23.00;71.91
14204;BME280;7185;51.854;6.622;2023-08-06T08:35:39;100150.75;;;23.00;71.66
14204;BME280;7185;51.854;6.622;2023-08-06T08:38:12;100157.91;;;23.00;71.29
14204;BME280;7185;51.854;6.622;2023-08-06T08:40:52;100148.41;;;22.84;71.77
14204;BME280;7185;51.854;6.622;2023-08-06T08:43:30;100155.97;;;22.90;72.14
14204;BME280;7185;51.854;6.622;2023-08-06T08:46:06;100154.59;;;22.85;71.97
14204;BME280;7185;51.854;6.622;2023-08-06T08:48:46;100156.22;;;22.99;71.62
14204;BME280;7185;51.854;6.622;2023-08-06T08:51:21;100161.06;;;22.94;72.58
14204;BME280;7185;51.854;6.622;2023-08-06T08:53:57;100154.38;;;22.99;72.05
14204;BME280;7185;51.854;6.622;2023-08-06T08:56:29;100158.41;;;23.16;71.53
14204;BME280;7185;51.854;6.622;2023-08-06T08:59:01;100158.97;;;23.21;71.18
14204;BME280;7185;51.854;6.622;2023-08-06T09:01:37;100160.66;;;23.34;71.00
14204;BME280;7185;51.854;6.622;2023-08-06T09:04:13;100162.84;;;23.40;70.47
14204;BME280;7185;51.854;6.622;2023-08-06T09:06:50;100160.41;;;23.48;69.63
14204;BME280;7185;51.854;6.622;2023-08-06T09:09:30;100168.41;;;23.60;69.60
14204;BME280;7185;51.854;6.622;2023-08-06T09:12:12;100165.50;;;23.51;70.02
14204;BME280;7185;51.854;6.622;2023-08-06T09:14:47;100169.28;;;23.60;69.63
14204;BME280;7185;51.854;6.622;2023-08-06T09:17:30;100166.50;;;23.50;70.01
14204;BME280;7185;51.854;6.622;2023-08-06T09:20:16;100174.25;;;23.76;69.50
14204;BME280;7185;51.854;6.622;2023-08-06T09:23:07;100165.94;;;23.79;69.75
14204;BME280;7185;51.854;6.622;2023-08-06T09:25:42;100168.28;;;23.73;69.44
14204;BME280;7185;51.854;6.622;2023-08-06T09:29:09;100167.56;;;23.82;69.72
14204;BME280;7185;51.854;6.622;2023-08-06T09:35:00;100166.91;;;24.01;68.00
14204;BME280;7185;51.854;6.622;2023-08-06T09:37:37;100174.09;;;24.00;68.29
14204;BME280;7185;51.854;6.622;2023-08-06T09:40:27;100170.09;;;23.95;67.66
14204;BME280;7185;51.854;6.622;2023-08-06T09:43:13;100167.06;;;24.32;66.62
14204;BME280;7185;51.854;6.622;2023-08-06T09:45:58;100165.06;;;24.45;66.40
14204;BME280;7185;51.854;6.622;2023-08-06T09:48:36;100167.19;;;24.63;66.32
14204;BME280;7185;51.854;6.622;2023-08-06T09:51:17;100174.94;;;24.77;66.37
14204;BME280;7185;51.854;6.622;2023-08-06T09:53:59;100174.84;;;24.89;66.00
14204;BME280;7185;51.854;6.622;2023-08-06T09:56:56;100174.91;;;25.20;64.04
14204;BME280;7185;51.854;6.622;2023-08-06T09:59:34;100175.06;;;25.49;64.50
14204;BME280;7185;51.854;6.622;2023-08-06T10:02:12;100174.28;;;26.38;65.58
14204;BME280;7185;51.854;6.622;2023-08-06T10:04:53;100176.63;;;27.10;65.42
14204;BME280;7185;51.854;6.622;2023-08-06T10:07:30;100172.16;;;27.94;61.58
14204;BME280;7185;51.854;6.622;2023-08-06T10:10:13;100163.72;;;28.43;57.32
14204;BME280;7185;51.854;6.622;2023-08-06T10:13:01;100164.53;;;29.06;53.28
14204;BME280;7185;51.854;6.622;2023-08-06T10:15:41;100166.25;;;29.34;54.82
14204;BME280;7185;51.854;6.622;2023-08-06T10:18:40;100172.00;;;29.13;51.89
14204;BME280;7185;51.854;6.622;2023-08-06T10:21:40;100172.75;;;29.49;51.35
14204;BME280;7185;51.854;6.622;2023-08-06T10:24:28;100171.13;;;29.04;51.49
14204;BME280;7185;51.854;6.622;2023-08-06T10:30:42;100164.19;;;29.28;51.80
14204;BME280;7185;51.854;6.622;2023-08-06T10:33:50;100173.34;;;28.82;52.97
14204;BME280;7185;51.854;6.622;2023-08-06T10:37:01;100171.50;;;28.65;54.06
14204;BME280;7185;51.854;6.622;2023-08-06T10:39:51;100173.13;;;27.75;54.30
14204;BME280;7185;51.854;6.622;2023-08-06T10:42:27;100175.56;;;27.68;55.14
14204;BME280;7185;51.854;6.622;2023-08-06T10:45:14;100184.81;;;27.18;53.98
14204;BME280;7185;51.854;6.622;2023-08-06T10:47:48;100183.13;;;27.08;55.98
14204;BME280;7185;51.854;6.622;2023-08-06T10:50:20;100179.47;;;27.09;55.16
14204;BME280;7185;51.854;6.622;2023-08-06T10:52:52;100184.78;;;27.28;56.36
14204;BME280;7185;51.854;6.622;2023-08-06T10:55:28;100182.72;;;27.12;56.05
14204;BME280;7185;51.854;6.622;2023-08-06T10:58:03;100180.59;;;26.96;55.79
14204;BME280;7185;51.854;6.622;2023-08-06T11:00:37;100186.94;;;25.97;59.34
14204;BME280;7185;51.854;6.622;2023-08-06T11:03:14;100183.16;;;25.59;60.60
14204;BME280;7185;51.854;6.622;2023-08-06T11:05:48;100189.00;;;25.22;61.65
14204;BME280;7185;51.854;6.622;2023-08-06T11:08:28;100188.81;;;25.13;62.10
14204;BME280;7185;51.854;6.622;2023-08-06T11:11:27;100188.28;;;24.89;62.08
14204;BME280;7185;51.854;6.622;2023-08-06T11:14:18;100183.75;;;24.89;62.46
14204;BME280;7185;51.854;6.622;2023-08-06T11:17:19;100181.59;;;25.04;63.60
14204;BME280;7185;51.854;6.622;2023-08-06T11:20:18;100182.22;;;24.96;64.16
14204;BME280;7185;51.854;6.622;2023-08-06T11:23:09;100174.44;;;25.14;63.43
14204;BME280;7185;51.854;6.622;2023-08-06T11:26:06;100168.31;;;25.34;62.13
14204;BME280;7185;51.854;6.622;2023-08-06T11:28:44;100173.09;;;25.51;61.80
14204;BME280;7185;51.854;6.622;2023-08-06T11:31:27;100174.19;;;25.49;62.43
14204;BME280;7185;51.854;6.622;2023-08-06T11:37:34;100174.09;;;25.29;61.90
14204;BME280;7185;51.854;6.622;2023-08-06T11:47:52;100200.28;;;25.77;58.58
14204;BME280;7185;51.854;6.622;2023-08-06T11:50:49;100210.75;;;25.19;62.75
14204;BME280;7185;51.854;6.622;2023-08-06T11:54:16;100202.72;;;24.65;63.49
14204;BME280;7185;51.854;6.622;2023-08-06T11:57:16;100207.94;;;24.01;66.85
14204;BME280;7185;51.854;6.622;2023-08-06T11:59:56;100206.25;;;24.00;67.65
14204;BME280;7185;51.854;6.622;2023-08-06T12:02:38;100205.13;;;23.92;66.52
14204;BME280;7185;51.854;6.622;2023-08-06T12:05:12;100209.31;;;23.50;67.18
14204;BME280;7185;51.854;6.622;2023-08-06T12:08:37;100213.31;;;22.86;69.84
14204;BME280;7185;51.854;6.622;2023-08-06T12:10:54;100217.22;;;22.21;71.50
14204;BME280;7185;51.854;6.622;2023-08-06T12:13:33;100214.81;;;21.55;73.54
14204;BME280;7185;51.854;6.622;2023-08-06T12:16:05;100229.53;;;21.60;74.93
14204;BME280;7185;51.854;6.622;2023-08-06T12:18:42;100226.19;;;21.18;77.00
14204;BME280;7185;51.854;6.622;2023-08-06T12:21:16;100241.31;;;20.64;78.74
14204;BME280;7185;51.854;6.622;2023-08-06T12:23:57;100239.19;;;20.57;81.03
14204;BME280;7185;51.854;6.622;2023-08-06T12:26:30;100265.63;;;20.18;81.08
14204;BME280;7185;51.854;6.622;2023-08-06T12:29:02;100276.38;;;19.73;80.93
14204;BME280;7185;51.854;6.622;2023-08-06T12:31:37;100270.38;;;19.40;81.91
14204;BME280;7185;51.854;6.622;2023-08-06T12:34:09;100274.19;;;19.65;83.21
14204;BME280;7185;51.854;6.622;2023-08-06T12:36:44;100267.03;;;19.22;81.01
14204;BME280;7185;51.854;6.622;2023-08-06T12:39:16;100269.13;;;19.46;82.62
14204;BME280;7185;51.854;6.622;2023-08-06T12:41:52;100266.09;;;19.38;81.39
14204;BME280;7185;51.854;6.622;2023-08-06T12:44:24;100280.06;;;19.11;81.31
14204;BME280;7185;51.854;6.622;2023-08-06T12:46:59;100286.63;;;18.89;81.11
14204;BME280;7185;51.854;6.622;2023-08-06T12:49:31;100271.06;;;19.14;81.35
14204;BME280;7185;51.854;6.622;2023-08-06T12:52:04;100287.28;;;19.39;81.13
14204;BME280;7185;51.854;6.622;2023-08-06T12:54:37;100296.06;;;18.95;82.27
14204;BME280;7185;51.854;6.622;2023-08-06T12:57:11;100293.03;;;19.01;83.19
14204;BME280;7185;51.854;6.622;2023-08-06T12:59:49;100308.06;;;19.02;82.09
14204;BME280;7185;51.854;6.622;2023-08-06T13:02:21;100304.16;;;19.38;82.27
14204;BME280;7185;51.854;6.622;2023-08-06T13:04:53;100309.75;;;19.03;81.84
14204;BME280;7185;51.854;6.622;2023-08-06T13:07:25;100311.22;;;18.93;82.97
14204;BME280;7185;51.854;6.622;2023-08-06T13:09:57;100308.72;;;19.06;83.33
14204;BME280;7185;51.854;6.622;2023-08-06T13:12:30;100316.91;;;19.03;84.05
14204;BME280;7185;51.854;6.622;2023-08-06T13:15:03;100325.50;;;19.22;84.85
14204;BME280;7185;51.854;6.622;2023-08-06T13:17:35;100342.41;;;19.05;84.34
14204;BME280;7185;51.854;6.622;2023-08-06T13:20:07;100344.41;;;19.32;83.77
14204;BME280;7185;51.854;6.622;2023-08-06T13:22:39;100337.97;;;18.90;83.46
14204;BME280;7185;51.854;6.622;2023-08-06T13:25:12;100347.81;;;18.88;84.20
14204;BME280;7185;51.854;6.622;2023-08-06T13:33:57;100341.06;;;19.29;83.70
14204;BME280;7185;51.854;6.622;2023-08-06T13:36:29;100339.56;;;19.08;82.86
14204;BME280;7185;51.854;6.622;2023-08-06T13:39:01;100344.72;;;19.11;82.74
14204;BME280;7185;51.854;6.622;2023-08-06T13:41:34;100354.56;;;19.40;81.97
14204;BME280;7185;51.854;6.622;2023-08-06T13:44:06;100357.78;;;19.61;81.98
14204;BME280;7185;51.854;6.622;2023-08-06T13:46:38;100358.94;;;19.41;81.65
14204;BME280;7185;51.854;6.622;2023-08-06T13:49:11;100361.50;;;19.73;81.26
14204;BME280;7185;51.854;6.622;2023-08-06T13:51:43;100363.28;;;19.72;81.70
14204;BME280;7185;51.854;6.622;2023-08-06T13:54:15;100372.13;;;19.12;83.65
14204;BME280;7185;51.854;6.622;2023-08-06T13:56:47;100370.16;;;19.46;82.68
14204;BME280;7185;51.854;6.622;2023-08-06T13:59:20;100363.50;;;19.69;82.19
14204;BME280;7185;51.854;6.622;2023-08-06T14:01:54;100375.50;;;19.61;82.72
14204;BME280;7185;51.854;6.622;2023-08-06T14:04:31;100377.81;;;19.67;82.30
14204;BME280;7185;51.854;6.622;2023-08-06T14:07:03;100376.00;;;19.67;82.53
14204;BME280;7185;51.854;6.622;2023-08-06T14:09:36;100374.53;;;19.47;82.94
14204;BME280;7185;51.854;6.622;2023-08-06T14:12:08;100369.16;;;19.49;83.77
14204;BME280;7185;51.854;6.622;2023-08-06T14:14:40;100371.03;;;19.47;83.56
14204;BME280;7185;51.854;6.622;2023-08-06T14:17:11;100378.91;;;19.18;84.48
14204;BME280;7185;51.854;6.622;2023-08-06T14:19:45;100384.41;;;19.75;82.70
14204;BME280;7185;51.854;6.622;2023-08-06T14:22:16;100380.16;;;19.26;83.75
14204;BME280;7185;51.854;6.622;2023-08-06T14:24:48;100388.69;;;19.48;83.77
14204;BME280;7185;51.854;6.622;2023-08-06T14:27:20;100376.06;;;19.21;84.99
14204;BME280;7185;51.854;6.622;2023-08-06T14:29:52;100377.75;;;19.38;84.10
14204;BME280;7185;51.854;6.622;2023-08-06T14:32:24;100382.13;;;19.53;83.99
14204;BME280;7185;51.854;6.622;2023-08-06T14:34:59;100386.91;;;19.63;83.77
14204;BME280;7185;51.854;6.622;2023-08-06T14:37:31;100385.09;;;19.49;84.25
14204;BME280;7185;51.854;6.622;2023-08-06T14:40:03;100396.63;;;19.33;84.83
14204;BME280;7185;51.854;6.622;2023-08-06T14:42:35;100407.13;;;19.04;85.04
14204;BME280;7185;51.854;6.622;2023-08-06T14:45:07;100398.03;;;19.08;84.39
14204;BME280;7185;51.854;6.622;2023-08-06T14:47:39;100402.41;;;19.09;85.15
14204;BME280;7185;51.854;6.622;2023-08-06T14:50:13;100406.16;;;19.21;83.95
14204;BME280;7185;51.854;6.622;2023-08-06T14:52:48;100413.63;;;19.15;83.53
14204;BME280;7185;51.854;6.622;2023-08-06T14:55:24;100413.25;;;19.37;82.53
14204;BME280;7185;51.854;6.622;2023-08-06T14:57:55;100422.72;;;19.10;83.00
14204;BME280;7185;51.854;6.622;2023-08-06T15:00:28;100422.66;;;19.42;82.87
14204;BME280;7185;51.854;6.622;2023-08-06T15:03:03;100431.53;;;19.27;82.16
14204;BME280;7185;51.854;6.622;2023-08-06T15:05:36;100438.91;;;19.06;82.42
14204;BME280;7185;51.854;6.622;2023-08-06T15:08:08;100444.34;;;19.04;81.90
14204;BME280;7185;51.854;6.622;2023-08-06T15:10:40;100441.56;;;19.38;81.80
14204;BME280;7185;51.854;6.622;2023-08-06T15:13:12;100448.50;;;19.08;80.54
14204;BME280;7185;51.854;6.622;2023-08-06T15:15:46;100454.78;;;19.07;82.18
14204;BME280;7185;51.854;6.622;2023-08-06T15:18:18;100453.41;;;19.16;82.30
14204;BME280;7185;51.854;6.622;2023-08-06T15:20:51;100461.44;;;18.83;82.91
14204;BME280;7185;51.854;6.622;2023-08-06T15:23:25;100467.13;;;19.08;81.86
14204;BME280;7185;51.854;6.622;2023-08-06T15:25:57;100464.03;;;19.32;81.48
14204;BME280;7185;51.854;6.622;2023-08-06T15:28:30;100471.28;;;19.45;81.69
14204;BME280;7185;51.854;6.622;2023-08-06T15:31:02;100473.50;;;19.52;81.77
14204;BME280;7185;51.854;6.622;2023-08-06T15:33:38;100486.69;;;19.23;82.32
14204;BME280;7185;51.854;6.622;2023-08-06T15:36:13;100483.91;;;19.41;82.16
14204;BME280;7185;51.854;6.622;2023-08-06T15:38:44;100487.59;;;19.38;82.09
14204;BME280;7185;51.854;6.622;2023-08-06T15:41:16;100499.25;;;19.52;82.05
14204;BME280;7185;51.854;6.622;2023-08-06T15:43:49;100505.06;;;19.42;82.39
14204;BME280;7185;51.854;6.622;2023-08-06T15:46:24;100502.75;;;19.36;82.76
14204;BME280;7185;51.854;6.622;2023-08-06T15:48:59;100504.91;;;19.14;84.09
14204;BME280;7185;51.854;6.622;2023-08-06T15:51:32;100499.00;;;19.08;84.87
14204;BME280;7185;51.854;6.622;2023-08-06T15:54:13;100508.78;;;18.92;86.11
14204;BME280;7185;51.854;6.622;2023-08-06T15:56:45;100509.38;;;18.97;85.45
14204;BME280;7185;51.854;6.622;2023-08-06T15:59:21;100509.97;;;19.02;85.92
14204;BME280;7185;51.854;6.622;2023-08-06T16:01:53;100515.63;;;19.28;85.06
14204;BME280;7185;51.854;6.622;2023-08-06T16:04:28;100521.41;;;18.87;87.23
14204;BME280;7185;51.854;6.622;2023-08-06T16:07:02;100522.66;;;18.97;86.71
14204;BME280;7185;51.854;6.622;2023-08-06T16:09:34;100525.81;;;19.04;86.47
14204;BME280;7185;51.854;6.622;2023-08-06T16:12:07;100530.81;;;19.26;85.85
14204;BME280;7185;51.854;6.622;2023-08-06T16:14:40;100538.69;;;19.43;85.51
14204;BME280;7185;51.854;6.622;2023-08-06T16:17:12;100542.06;;;19.31;86.30
14204;BME280;7185;51.854;6.622;2023-08-06T16:19:44;100548.75;;;19.06;87.15
14204;BME280;7185;51.854;6.622;2023-08-06T16:22:17;100542.38;;;19.41;85.53
14204;BME280;7185;51.854;6.622;2023-08-06T16:24:49;100547.69;;;19.41;86.11